createdAt,value
2023-04-18T00:01:40.798Z,13.32
2023-04-18T00:04:47.025Z,13.26
2023-04-18T00:07:49.997Z,13.14
2023-04-18T00:10:54.268Z,13.25
2023-04-18T00:14:00.268Z,13.23
2023-04-18T00:20:10.722Z,13.21
2023-04-18T00:23:16.868Z,13.37
2023-04-18T00:26:19.932Z,13.25
2023-04-18T00:29:23.393Z,13.23
2023-04-18T00:32:28.645Z,13.02
2023-04-18T00:35:33.735Z,13.00
2023-04-18T00:38:36.733Z,13.00
2023-04-18T00:41:39.973Z,12.94
2023-04-18T00:44:42.621Z,12.92
2023-04-18T00:47:45.567Z,12.79
2023-04-18T00:50:48.183Z,12.80
2023-04-18T00:53:51.590Z,12.71
2023-04-18T00:56:54.310Z,12.52
2023-04-18T00:59:57.547Z,12.42
2023-04-18T01:03:01.143Z,12.24
2023-04-18T01:06:04.835Z,12.20
2023-04-18T01:09:08.930Z,12.12
2023-04-18T01:12:12.022Z,12.03
2023-04-18T01:15:14.763Z,12.09
2023-04-18T01:18:18.156Z,11.99
2023-04-18T01:21:22.033Z,12.04
2023-04-18T01:24:27.081Z,12.09
2023-04-18T01:27:30.720Z,12.11
2023-04-18T01:30:36.306Z,12.17
2023-04-18T01:33:38.844Z,12.27
2023-04-18T01:36:41.960Z,12.34
2023-04-18T01:39:46.240Z,12.47
2023-04-18T01:42:49.490Z,12.44
2023-04-18T01:45:52.048Z,12.46
2023-04-18T01:48:55.767Z,12.40
2023-04-18T01:51:58.352Z,12.34
2023-04-18T01:55:04.313Z,12.41
2023-04-18T01:58:07.044Z,12.36
2023-04-18T02:01:11.489Z,12.42
2023-04-18T02:04:14.879Z,12.37
2023-04-18T02:07:17.915Z,12.41
2023-04-18T02:10:21.533Z,12.30
2023-04-18T02:13:24.701Z,12.25
2023-04-18T02:16:27.820Z,12.19
2023-04-18T02:19:31.069Z,12.14
2023-04-18T02:22:33.774Z,12.04
2023-04-18T02:25:36.923Z,11.89
2023-04-18T02:28:39.933Z,11.77
2023-04-18T02:31:43.213Z,11.73
2023-04-18T02:34:45.923Z,11.63
2023-04-18T02:37:50.870Z,11.63
2023-04-18T02:40:53.627Z,11.62
2023-04-18T02:43:56.914Z,11.71
2023-04-18T02:47:00.533Z,11.92
2023-04-18T02:50:04.399Z,11.96
2023-04-18T02:53:07.781Z,11.91
2023-04-18T02:56:17.224Z,11.85
2023-04-18T02:59:22.153Z,11.88
2023-04-18T03:02:27.735Z,11.94
2023-04-18T03:05:31.106Z,11.78
2023-04-18T03:08:34.781Z,11.65
2023-04-18T03:11:37.518Z,11.54
2023-04-18T03:14:41.136Z,11.58
2023-04-18T03:17:44.242Z,11.66
2023-04-18T03:20:48.369Z,11.71
2023-04-18T03:23:53.317Z,11.79
2023-04-18T03:26:59.922Z,11.86
2023-04-18T03:30:03.857Z,11.81
2023-04-18T03:33:07.507Z,12.00
2023-04-18T03:36:12.152Z,11.98
2023-04-18T03:39:15.388Z,11.99
2023-04-18T03:42:18.576Z,12.08
2023-04-18T03:45:21.490Z,12.19
2023-04-18T03:48:24.340Z,12.04
2023-04-18T03:51:27.912Z,12.02
2023-04-18T03:54:30.512Z,12.11
2023-04-18T03:57:33.647Z,12.04
2023-04-18T04:00:37.398Z,12.08
2023-04-18T04:03:41.024Z,12.12
2023-04-18T04:06:44.043Z,12.07
2023-04-18T04:09:47.058Z,12.11
2023-04-18T04:12:49.962Z,12.05
2023-04-18T04:15:53.789Z,12.03
2023-04-18T04:18:56.698Z,11.98
2023-04-18T04:22:00.279Z,11.95
2023-04-18T04:25:04.032Z,11.87
2023-04-18T04:28:08.349Z,11.81
2023-04-18T04:31:12.724Z,11.83
2023-04-18T04:34:17.021Z,11.77
2023-04-18T04:37:21.648Z,11.74
2023-04-18T04:40:26.668Z,11.68
2023-04-18T04:43:30.325Z,11.61
2023-04-18T04:46:34.158Z,11.59
2023-04-18T04:49:37.547Z,11.57
2023-04-18T04:52:40.435Z,11.55
2023-04-18T04:55:43.178Z,11.48
2023-04-18T04:58:47.349Z,11.39
2023-04-18T05:01:53.400Z,11.33
2023-04-18T05:05:06.176Z,11.28
2023-04-18T05:08:08.921Z,11.25
2023-04-18T05:11:11.978Z,11.24
2023-04-18T05:14:14.942Z,11.26
2023-04-18T05:17:18.046Z,11.26
2023-04-18T05:20:20.742Z,11.19
2023-04-18T05:23:23.836Z,11.25
2023-04-18T05:26:26.525Z,11.27
2023-04-18T05:29:29.325Z,11.30
2023-04-18T05:32:31.918Z,11.30
2023-04-18T05:35:34.932Z,11.34
2023-04-18T05:38:37.563Z,11.31
2023-04-18T05:41:40.635Z,11.36
2023-04-18T05:44:43.294Z,11.39
2023-04-18T05:47:46.226Z,11.40
2023-04-18T05:50:48.825Z,11.29
2023-04-18T05:53:51.840Z,11.24
2023-04-18T05:56:55.005Z,11.17
2023-04-18T05:59:57.892Z,11.16
2023-04-18T06:03:00.720Z,11.20
2023-04-18T06:06:03.948Z,11.20
2023-04-18T06:09:06.823Z,11.18
2023-04-18T06:12:10.158Z,11.13
2023-04-18T06:15:12.798Z,11.13
2023-04-18T06:18:15.705Z,11.16
2023-04-18T06:21:18.546Z,11.20
2023-04-18T06:24:21.444Z,11.21
2023-04-18T06:27:31.008Z,11.25
2023-04-18T06:30:34.850Z,11.26
2023-04-18T06:33:37.925Z,11.16
2023-04-18T06:36:41.222Z,11.26
2023-04-18T06:39:43.816Z,11.26
2023-04-18T06:42:46.924Z,11.22
2023-04-18T06:45:49.521Z,11.22
2023-04-18T06:48:52.566Z,11.19
2023-04-18T06:51:55.121Z,11.15
2023-04-18T06:54:57.994Z,11.16
2023-04-18T06:58:00.850Z,11.14
2023-04-18T07:01:03.854Z,11.13
2023-04-18T07:04:06.697Z,11.11
2023-04-18T07:07:09.859Z,11.11
2023-04-18T07:10:12.975Z,11.11
2023-04-18T07:13:16.140Z,11.16
2023-04-18T07:16:18.952Z,11.24
2023-04-18T07:19:21.907Z,11.33
2023-04-18T07:22:24.508Z,11.53
2023-04-18T07:25:27.463Z,11.59
2023-04-18T07:28:32.311Z,11.74
2023-04-18T07:31:35.633Z,11.87
2023-04-18T07:34:40.490Z,11.92
2023-04-18T07:37:43.438Z,12.01
2023-04-18T07:40:46.168Z,12.07
2023-04-18T07:43:49.020Z,12.14
2023-04-18T07:46:52.415Z,12.24
2023-04-18T07:49:55.474Z,12.32
2023-04-18T07:52:58.062Z,12.42
2023-04-18T07:56:00.964Z,12.40
2023-04-18T07:59:03.612Z,12.50
2023-04-18T08:02:06.732Z,12.56
2023-04-18T08:05:10.458Z,12.72
2023-04-18T08:08:13.518Z,12.94
2023-04-18T08:11:16.687Z,13.12
2023-04-18T08:14:19.332Z,13.11
2023-04-18T08:17:23.465Z,13.23
2023-04-18T08:20:26.115Z,13.26
2023-04-18T08:23:29.117Z,13.46
2023-04-18T08:26:31.641Z,13.66
2023-04-18T08:29:34.681Z,13.76
2023-04-18T08:32:37.584Z,13.84
2023-04-18T08:35:41.067Z,14.04
2023-04-18T08:38:43.742Z,14.10
2023-04-18T08:41:53.805Z,14.00
2023-04-18T08:44:59.607Z,14.18
2023-04-18T08:48:03.913Z,14.22
2023-04-18T08:51:07.235Z,14.08
2023-04-18T08:54:10.637Z,14.20
2023-04-18T08:57:16.893Z,14.86
2023-04-18T09:00:20.572Z,15.05
2023-04-18T09:03:40.239Z,15.22
2023-04-18T09:06:53.178Z,15.28
2023-04-18T09:09:57.478Z,16.50
2023-04-18T09:13:03.746Z,17.43
2023-04-18T09:16:07.380Z,17.58
2023-04-18T09:19:18.290Z,17.26
2023-04-18T09:22:22.116Z,16.86
2023-04-18T09:25:36.079Z,16.18
2023-04-18T09:28:41.070Z,16.13
2023-04-18T09:32:01.601Z,16.48
2023-04-18T09:35:05.661Z,17.12
2023-04-18T09:38:09.118Z,17.31
2023-04-18T09:41:13.121Z,17.89
2023-04-18T09:44:17.790Z,17.94
2023-04-18T09:47:20.664Z,19.06
2023-04-18T09:50:23.726Z,19.87
2023-04-18T09:53:28.555Z,20.16
2023-04-18T09:56:32.994Z,21.23
2023-04-18T09:59:57.804Z,21.87
2023-04-18T10:03:08.367Z,22.25
2023-04-18T10:06:12.162Z,21.78
2023-04-18T10:09:16.190Z,21.73
2023-04-18T10:12:20.622Z,22.39
2023-04-18T10:15:26.477Z,23.80
2023-04-18T10:18:29.374Z,25.07
2023-04-18T10:21:32.227Z,24.75
2023-04-18T10:24:50.280Z,22.20
2023-04-18T10:27:59.737Z,21.85
2023-04-18T10:31:04.373Z,22.14
2023-04-18T10:34:07.669Z,23.17
2023-04-18T10:37:12.997Z,22.20
2023-04-18T10:40:16.026Z,22.19
2023-04-18T10:43:19.099Z,20.97
2023-04-18T10:46:31.580Z,22.06
2023-04-18T10:49:38.594Z,22.96
2023-04-18T10:52:41.938Z,23.98
2023-04-18T10:55:54.792Z,23.82
2023-04-18T10:59:02.141Z,23.80
2023-04-18T11:02:11.085Z,23.66
2023-04-18T11:05:20.017Z,22.63
2023-04-18T11:08:24.052Z,21.70
2023-04-18T11:11:26.764Z,20.91
2023-04-18T11:14:49.650Z,20.41
2023-04-18T11:18:01.920Z,19.66
2023-04-18T11:21:05.745Z,19.78
2023-04-18T11:24:08.512Z,19.34
2023-04-18T11:27:12.817Z,18.98
2023-04-18T11:30:16.342Z,19.41
2023-04-18T11:33:19.200Z,19.82
2023-04-18T11:36:22.317Z,20.21
2023-04-18T11:39:25.726Z,20.35
2023-04-18T11:42:28.963Z,19.68
2023-04-18T11:45:32.129Z,19.17
2023-04-18T11:48:36.668Z,19.03
2023-04-18T11:51:39.734Z,18.88
2023-04-18T11:54:44.628Z,18.69
2023-04-18T11:57:54.810Z,19.18
2023-04-18T12:00:57.473Z,19.39
2023-04-18T12:04:05.972Z,19.83
2023-04-18T12:07:09.468Z,20.43
2023-04-18T12:10:21.914Z,19.94
2023-04-18T12:13:32.982Z,19.95
2023-04-18T12:16:36.046Z,19.93
2023-04-18T12:19:38.702Z,21.05
2023-04-18T12:22:47.487Z,21.93
2023-04-18T12:25:59.762Z,22.54
2023-04-18T12:29:02.600Z,23.29
2023-04-18T12:32:05.491Z,22.65
2023-04-18T12:35:09.022Z,22.73
2023-04-18T12:38:11.910Z,22.77
2023-04-18T12:41:14.764Z,22.48
2023-04-18T12:44:17.838Z,21.80
2023-04-18T12:47:21.709Z,22.86
2023-04-18T12:50:26.499Z,23.31
2023-04-18T12:53:29.476Z,22.42
2023-04-18T12:56:32.285Z,22.84
2023-04-18T12:59:35.187Z,23.56
2023-04-18T13:02:39.572Z,23.32
2023-04-18T13:05:42.676Z,23.88
2023-04-18T13:08:47.554Z,23.48
2023-04-18T13:11:51.283Z,22.03
2023-04-18T13:14:54.208Z,20.57
2023-04-18T13:17:57.295Z,19.68
2023-04-18T13:21:00.093Z,19.32
2023-04-18T13:24:02.986Z,18.94
2023-04-18T13:27:10.588Z,18.70
2023-04-18T13:30:13.608Z,18.10
2023-04-18T13:33:17.171Z,17.65
2023-04-18T13:36:20.151Z,17.51
2023-04-18T13:39:24.916Z,17.18
2023-04-18T13:42:27.955Z,16.81
2023-04-18T13:45:30.640Z,16.49
2023-04-18T13:48:33.690Z,16.29
2023-04-18T13:51:36.351Z,16.35
2023-04-18T13:54:39.298Z,16.16
2023-04-18T13:57:41.979Z,16.04
2023-04-18T14:00:44.976Z,15.83
2023-04-18T14:03:48.333Z,15.31
2023-04-18T14:06:51.602Z,14.78
2023-04-18T14:09:54.795Z,14.60
2023-04-18T14:12:57.614Z,14.45
2023-04-18T14:16:01.206Z,14.33
2023-04-18T14:19:03.816Z,14.37
2023-04-18T14:22:07.979Z,14.40
2023-04-18T14:25:10.605Z,14.42
2023-04-18T14:28:13.521Z,14.44
2023-04-18T14:31:16.693Z,14.43
2023-04-18T14:34:19.825Z,14.38
2023-04-18T14:37:22.542Z,14.41
2023-04-18T14:40:25.429Z,14.48
2023-04-18T14:43:28.085Z,14.47
2023-04-18T14:46:31.067Z,14.46
2023-04-18T14:49:34.197Z,14.53
2023-04-18T14:52:37.028Z,14.60
2023-04-18T14:55:39.625Z,14.67
2023-04-18T14:58:44.033Z,14.49
2023-04-18T15:01:46.657Z,14.50
2023-04-18T15:04:50.095Z,14.44
2023-04-18T15:07:53.020Z,14.52
2023-04-18T15:10:56.248Z,14.46
2023-04-18T15:13:58.915Z,14.48
2023-04-18T15:17:03.138Z,14.42
2023-04-18T15:20:09.722Z,14.34
2023-04-18T15:23:14.292Z,14.27
2023-04-18T15:26:17.172Z,14.07
2023-04-18T15:29:20.123Z,14.01
2023-04-18T15:32:23.432Z,13.93
2023-04-18T15:35:26.536Z,13.82
2023-04-18T15:38:31.530Z,13.68
2023-04-18T15:41:37.072Z,13.67
2023-04-18T15:44:39.747Z,13.59
2023-04-18T15:47:42.808Z,13.47
2023-04-18T15:50:52.252Z,13.59
2023-04-18T15:53:56.378Z,13.72
2023-04-18T15:56:58.912Z,13.77
2023-04-18T16:00:01.984Z,13.81
2023-04-18T16:03:05.003Z,13.79
2023-04-18T16:06:10.142Z,13.76
2023-04-18T16:09:12.804Z,13.77
2023-04-18T16:12:16.446Z,13.85
2023-04-18T16:15:19.315Z,13.96
2023-04-18T16:18:22.283Z,14.00
2023-04-18T16:21:24.941Z,14.12
2023-04-18T16:24:30.322Z,14.06
2023-04-18T16:27:33.601Z,13.87
2023-04-18T16:30:37.659Z,13.75
2023-04-18T16:33:40.424Z,13.79
2023-04-18T16:36:43.409Z,13.77
2023-04-18T16:39:46.165Z,13.77
2023-04-18T16:42:49.124Z,13.74
2023-04-18T16:45:51.994Z,13.71
2023-04-18T16:48:54.861Z,13.60
2023-04-18T16:51:57.482Z,13.57
2023-04-18T16:55:00.532Z,13.50
2023-04-18T16:58:03.156Z,13.51
2023-04-18T17:01:08.994Z,13.57
2023-04-18T17:04:11.752Z,13.53
2023-04-18T17:07:14.717Z,13.37
2023-04-18T17:10:20.802Z,13.14
2023-04-18T17:13:27.132Z,12.83
2023-04-18T17:16:31.164Z,12.28
2023-04-18T17:19:35.134Z,12.10
2023-04-18T17:22:38.434Z,12.02
2023-04-18T17:25:42.190Z,11.86
2023-04-18T17:28:44.864Z,11.75
2023-04-18T17:31:48.341Z,11.71
2023-04-18T17:34:51.486Z,11.61
2023-04-18T17:37:54.463Z,11.46
2023-04-18T17:41:01.762Z,11.43
2023-04-18T17:44:08.624Z,11.55
2023-04-18T17:47:12.408Z,11.56
2023-04-18T17:50:17.715Z,11.63
2023-04-18T17:53:20.968Z,11.50
2023-04-18T17:56:24.931Z,11.58
2023-04-18T17:59:28.833Z,11.70
2023-04-18T18:02:32.424Z,11.56
2023-04-18T18:05:35.843Z,11.53
2023-04-18T18:08:39.844Z,11.64
2023-04-18T18:11:43.805Z,11.56
2023-04-18T18:14:48.028Z,11.66
2023-04-18T18:17:52.466Z,11.60
2023-04-18T18:20:58.045Z,11.60
2023-04-18T18:24:01.610Z,11.71
2023-04-18T18:27:05.291Z,11.77
2023-04-18T18:30:10.055Z,11.95
2023-04-18T18:33:13.537Z,11.72
2023-04-18T18:36:18.034Z,11.70
2023-04-18T18:39:21.596Z,11.61
2023-04-18T18:42:26.463Z,11.77
2023-04-18T18:45:30.918Z,12.09
2023-04-18T18:48:37.619Z,12.15
2023-04-18T18:51:41.458Z,11.85
2023-04-18T18:54:45.380Z,11.76
2023-04-18T18:57:49.004Z,11.85
2023-04-18T19:00:56.379Z,11.86
2023-04-18T19:03:59.816Z,11.87
2023-04-18T19:07:04.997Z,11.70
2023-04-18T19:10:10.028Z,11.87
2023-04-18T19:13:15.073Z,11.85
2023-04-18T19:16:19.417Z,11.93
2023-04-18T19:19:24.163Z,11.95
2023-04-18T19:22:28.411Z,12.02
2023-04-18T19:25:32.358Z,12.09
2023-04-18T19:28:37.318Z,12.24
2023-04-18T19:31:43.247Z,12.16
2023-04-18T19:34:47.026Z,11.90
2023-04-18T19:37:51.048Z,11.86
2023-04-18T19:40:54.200Z,11.64
2023-04-18T19:44:00.720Z,11.68
2023-04-18T19:47:04.559Z,11.45
2023-04-18T19:50:11.095Z,11.39
2023-04-18T19:53:17.511Z,11.23
2023-04-18T19:56:21.269Z,11.01
2023-04-18T19:59:24.416Z,11.10
2023-04-18T20:02:30.732Z,10.94
2023-04-18T20:05:34.417Z,11.10
2023-04-18T20:08:42.248Z,11.17
2023-04-18T20:11:46.706Z,11.24
2023-04-18T20:14:50.798Z,11.06
2023-04-18T20:17:54.221Z,11.21
2023-04-18T20:20:57.319Z,11.31
2023-04-18T20:24:00.867Z,11.31
2023-04-18T20:27:04.974Z,11.12
2023-04-18T20:30:09.316Z,11.17
2023-04-18T20:33:13.197Z,10.96
2023-04-18T20:36:18.778Z,10.70
2023-04-18T20:39:22.023Z,11.00
2023-04-18T20:42:25.461Z,11.00
2023-04-18T20:45:28.349Z,10.82
2023-04-18T20:48:32.052Z,10.93
2023-04-18T20:51:37.104Z,11.03
2023-04-18T20:54:41.694Z,11.07
2023-04-18T20:57:44.646Z,11.11
2023-04-18T21:00:48.850Z,11.06
2023-04-18T21:03:52.776Z,11.11
2023-04-18T21:06:56.311Z,10.94
2023-04-18T21:09:59.049Z,11.08
2023-04-18T21:13:02.055Z,11.19
2023-04-18T21:16:07.929Z,11.11
2023-04-18T21:19:11.248Z,11.13
2023-04-18T21:22:17.511Z,10.96
2023-04-18T21:25:21.443Z,10.75
2023-04-18T21:28:24.210Z,10.50
2023-04-18T21:31:30.738Z,10.51
2023-04-18T21:34:33.303Z,10.24
2023-04-18T21:37:36.198Z,10.06
2023-04-18T21:40:38.839Z,10.35
2023-04-18T21:43:42.098Z,10.35
2023-04-18T21:46:45.365Z,10.52
2023-04-18T21:49:49.489Z,10.56
2023-04-18T21:52:52.414Z,10.57
2023-04-18T21:55:55.404Z,10.55
2023-04-18T21:58:58.051Z,10.58
2023-04-18T22:02:01.086Z,10.43
2023-04-18T22:05:04.235Z,10.38
2023-04-18T22:08:07.527Z,10.44
2023-04-18T22:11:11.920Z,10.38
2023-04-18T22:14:15.113Z,10.37
2023-04-18T22:17:18.331Z,10.44
2023-04-18T22:20:21.756Z,10.30
2023-04-18T22:23:26.215Z,10.37
2023-04-18T22:26:29.260Z,10.43
2023-04-18T22:29:32.165Z,10.31
2023-04-18T22:32:34.799Z,10.23
2023-04-18T22:35:38.132Z,9.91
2023-04-18T22:38:40.893Z,10.12
2023-04-18T22:41:43.961Z,10.00
2023-04-18T22:44:46.684Z,10.03
2023-04-18T22:47:49.883Z,10.05
2023-04-18T22:50:53.012Z,9.80
2023-04-18T22:53:56.740Z,9.89
2023-04-18T22:56:59.898Z,9.77
2023-04-18T23:00:04.925Z,9.91
2023-04-18T23:03:08.150Z,10.02
2023-04-18T23:06:11.410Z,10.14
2023-04-18T23:09:16.752Z,10.09
2023-04-18T23:12:20.199Z,10.06
2023-04-18T23:15:23.050Z,9.86
2023-04-18T23:18:29.202Z,9.58
2023-04-18T23:21:32.704Z,9.33
2023-04-18T23:24:35.673Z,9.24
2023-04-18T23:27:38.952Z,9.54
2023-04-18T23:30:41.929Z,9.69
2023-04-18T23:33:45.581Z,9.63
2023-04-18T23:36:48.524Z,9.66
2023-04-18T23:39:51.130Z,9.74
2023-04-18T23:42:54.081Z,9.58
2023-04-18T23:45:56.974Z,9.64
2023-04-18T23:49:00.640Z,9.46
2023-04-18T23:52:03.786Z,9.27
2023-04-18T23:55:07.237Z,9.54
2023-04-18T23:58:09.786Z,9.52
